Bookmark and Share
Track history (hours):
 

F/V Oceanis

Last reported at 2014-Feb-12 15:19 UTC. Time now 2014-Apr-21 12:21 UTC.
Position N 46°17' W 001°58'.
Warning: this ship's position is months out of date.

Length 16 m.

Type: Other ship. MMSI: 228385000.

NotesDate/timePositionNaut miles runAvg speedWind from/ knotsBaromVisibWave heightAir tempDewpointWater temp
2014-Feb-12 15:19N 46°17' W 001°58'5 6.1
2014-Feb-12 14:33N 46°21' W 001°54'6 6.0
2014-Feb-12 13:33N 46°26' W 001°50'4 0.3
2014-Feb-11 23:19N 46°30' W 001°48'4 4.7
2014-Feb-11 22:33N 46°26' W 001°49'5 4.7
2014-Feb-11 21:34N 46°22' W 001°50'3 3.0
2014-Feb-11 20:33N 46°19' W 001°51'1 1.2
2014-Feb-11 19:34N 46°20' W 001°52'1 1.3
2014-Feb-11 18:33N 46°21' W 001°52'3 2.8
2014-Feb-11 17:33N 46°18' W 001°54'4 3.7
2014-Feb-11 16:33N 46°16' W 001°57'6 6.0
2014-Feb-11 15:34N 46°21' W 001°54'6 5.7
2014-Feb-11 14:34N 46°26' W 001°50'4 4.2
2014-Feb-11 13:34N 46°30' W 001°47'0 0.1
2014-Feb-11 12:33N 46°30' W 001°48'0 0.0
2014-Feb-11 11:33N 46°30' W 001°48'0 0.0
2014-Feb-11 10:27N 46°30' W 001°48'  
2014-Feb-03 21:23N 46°30' W 001°47'0 0.0
2014-Feb-03 20:34N 46°30' W 001°47'0 0.0
2014-Feb-03 19:33N 46°30' W 001°47'0 0.0
2014-Feb-03 18:33N 46°30' W 001°47'0 0.0
2014-Feb-03 17:34N 46°30' W 001°47'0 0.0
2014-Feb-03 16:34N 46°30' W 001°47'0 0.0
2014-Feb-03 15:34N 46°30' W 001°47'0 0.0
2014-Feb-03 14:34N 46°30' W 001°47'0 0.0
2014-Feb-03 13:34N 46°30' W 001°47'  

Dump ship's entire track history

sailing weather and tide predictions

F/V Oceanis — FHLH — position and weather